FTE weather

El Calafate Airport
El Calafate, Santa Cruz Province, Argentina

Public forecast

Using degrees Celsius for public forecast. Weather courtesy of forecast.io.

Current aviation weather report (METAR) for El Calafate Airport

Report is more than 6 hours old.

Retrieved 2019/10/09 18:02 UTC (6 days ago):

SAWC 091802Z 29021G31KT CAVOK 15/M05 Q0996

Aviation forecast (TAF) for El Calafate Airport

Forecast is more than 12 hours old.

Retrieved 2019/04/29 06:00 UTC (6 months ago):

TAF SAWC 290500Z 2906/3006 29005KT 9999 SCT020 SCT040 TX08/2919Z TN02/3006Z BECMG 2910/2912 26020KT TEMPO 2916/2919 27020G35KT BECMG 2922/3000 VRB03KT BKN020